sensor_id;sensor_type;location;lat;lon;timestamp;pressure;altitude;pressure_sealevel;temperature;humidity
40788;BME280;26497;52.494;7.546;2022-09-30T00:01:14;100116.06;;;13.53;65.58
40788;BME280;26497;52.494;7.546;2022-09-30T00:03:41;100112.59;;;13.50;65.38
40788;BME280;26497;52.494;7.546;2022-09-30T00:06:09;100104.09;;;13.34;65.41
40788;BME280;26497;52.494;7.546;2022-09-30T00:08:38;100102.44;;;13.28;65.53
40788;BME280;26497;52.494;7.546;2022-09-30T00:11:09;100102.66;;;13.19;65.54
40788;BME280;26497;52.494;7.546;2022-09-30T00:13:39;100108.84;;;13.16;65.52
40788;BME280;26497;52.494;7.546;2022-09-30T00:16:07;100115.16;;;13.10;65.56
40788;BME280;26497;52.494;7.546;2022-09-30T00:18:35;100114.44;;;13.01;65.68
40788;BME280;26497;52.494;7.546;2022-09-30T00:21:02;100113.78;;;12.89;65.83
40788;BME280;26497;52.494;7.546;2022-09-30T00:23:30;100116.41;;;12.89;65.79
40788;BME280;26497;52.494;7.546;2022-09-30T00:26:00;100121.75;;;12.88;65.84
40788;BME280;26497;52.494;7.546;2022-09-30T00:28:28;100127.06;;;12.86;65.74
40788;BME280;26497;52.494;7.546;2022-09-30T00:30:58;100125.31;;;12.85;65.41
40788;BME280;26497;52.494;7.546;2022-09-30T00:33:26;100120.31;;;12.69;65.59
40788;BME280;26497;52.494;7.546;2022-09-30T00:35:53;100122.22;;;12.61;65.94
40788;BME280;26497;52.494;7.546;2022-09-30T00:38:20;100123.25;;;12.52;65.91
40788;BME280;26497;52.494;7.546;2022-09-30T00:40:48;100122.56;;;12.43;66.20
40788;BME280;26497;52.494;7.546;2022-09-30T00:43:37;100127.00;;;12.39;66.32
40788;BME280;26497;52.494;7.546;2022-09-30T00:46:15;100126.19;;;12.35;66.50
40788;BME280;26497;52.494;7.546;2022-09-30T00:48:43;100127.13;;;12.31;66.46
40788;BME280;26497;52.494;7.546;2022-09-30T00:51:11;100126.34;;;12.26;66.71
40788;BME280;26497;52.494;7.546;2022-09-30T00:53:44;100125.44;;;12.27;66.81
40788;BME280;26497;52.494;7.546;2022-09-30T00:56:16;100130.78;;;12.22;66.71
40788;BME280;26497;52.494;7.546;2022-09-30T00:58:48;100124.66;;;12.20;66.83
40788;BME280;26497;52.494;7.546;2022-09-30T01:01:18;100124.78;;;12.13;66.94
40788;BME280;26497;52.494;7.546;2022-09-30T01:03:49;100123.94;;;12.09;66.88
40788;BME280;26497;52.494;7.546;2022-09-30T01:06:20;100125.59;;;12.18;67.02
40788;BME280;26497;52.494;7.546;2022-09-30T01:08:48;100121.94;;;12.25;66.57
40788;BME280;26497;52.494;7.546;2022-09-30T01:11:15;100124.69;;;12.17;66.36
40788;BME280;26497;52.494;7.546;2022-09-30T01:13:48;100122.16;;;12.11;66.31
40788;BME280;26497;52.494;7.546;2022-09-30T01:16:50;100123.09;;;12.08;66.67
40788;BME280;26497;52.494;7.546;2022-09-30T01:22:32;100116.34;;;11.86;66.69
40788;BME280;26497;52.494;7.546;2022-09-30T01:28:58;100128.94;;;11.65;66.53
40788;BME280;26497;52.494;7.546;2022-09-30T01:31:45;100132.50;;;11.61;66.73
40788;BME280;26497;52.494;7.546;2022-09-30T01:34:23;100133.34;;;11.66;66.94
40788;BME280;26497;52.494;7.546;2022-09-30T01:37:05;100140.31;;;11.72;66.97
40788;BME280;26497;52.494;7.546;2022-09-30T01:39:44;100142.88;;;11.76;67.07
40788;BME280;26497;52.494;7.546;2022-09-30T01:42:22;100141.25;;;11.68;66.86
40788;BME280;26497;52.494;7.546;2022-09-30T01:44:57;100141.38;;;11.57;67.16
40788;BME280;26497;52.494;7.546;2022-09-30T01:47:31;100143.97;;;11.60;67.29
40788;BME280;26497;52.494;7.546;2022-09-30T01:50:06;100142.31;;;11.53;67.24
40788;BME280;26497;52.494;7.546;2022-09-30T01:52:39;100144.09;;;11.50;66.93
40788;BME280;26497;52.494;7.546;2022-09-30T01:55:15;100148.56;;;11.47;67.16
40788;BME280;26497;52.494;7.546;2022-09-30T01:57:51;100144.22;;;11.40;67.47
40788;BME280;26497;52.494;7.546;2022-09-30T02:00:22;100146.88;;;11.38;67.39
40788;BME280;26497;52.494;7.546;2022-09-30T02:02:55;100143.34;;;11.39;67.75
40788;BME280;26497;52.494;7.546;2022-09-30T02:05:30;100153.84;;;11.45;67.26
40788;BME280;26497;52.494;7.546;2022-09-30T02:08:04;100144.28;;;11.36;66.98
40788;BME280;26497;52.494;7.546;2022-09-30T02:10:39;100145.16;;;11.34;67.09
40788;BME280;26497;52.494;7.546;2022-09-30T02:13:15;100153.16;;;11.28;67.18
40788;BME280;26497;52.494;7.546;2022-09-30T02:15:51;100161.03;;;11.32;67.33
40788;BME280;26497;52.494;7.546;2022-09-30T02:18:27;100158.25;;;11.43;67.03
40788;BME280;26497;52.494;7.546;2022-09-30T02:21:00;100162.66;;;11.44;67.23
40788;BME280;26497;52.494;7.546;2022-09-30T02:23:35;100154.84;;;11.36;67.07
40788;BME280;26497;52.494;7.546;2022-09-30T02:26:10;100152.22;;;11.33;67.04
40788;BME280;26497;52.494;7.546;2022-09-30T02:28:43;100152.25;;;11.29;67.29
40788;BME280;26497;52.494;7.546;2022-09-30T02:31:13;100163.78;;;11.23;67.01
40788;BME280;26497;52.494;7.546;2022-09-30T02:33:46;100156.81;;;11.17;67.29
40788;BME280;26497;52.494;7.546;2022-09-30T02:36:20;100160.28;;;11.23;67.00
40788;BME280;26497;52.494;7.546;2022-09-30T02:38:58;100162.09;;;11.17;67.42
40788;BME280;26497;52.494;7.546;2022-09-30T02:41:30;100159.50;;;11.13;67.10
40788;BME280;26497;52.494;7.546;2022-09-30T02:43:59;100153.28;;;11.17;67.09
40788;BME280;26497;52.494;7.546;2022-09-30T02:46:33;100153.38;;;11.09;67.13
40788;BME280;26497;52.494;7.546;2022-09-30T02:49:19;100161.44;;;10.97;67.40
40788;BME280;26497;52.494;7.546;2022-09-30T02:51:59;100160.47;;;11.02;66.89
40788;BME280;26497;52.494;7.546;2022-09-30T02:54:33;100164.97;;;10.96;67.17
40788;BME280;26497;52.494;7.546;2022-09-30T02:57:11;100161.41;;;11.00;67.21
40788;BME280;26497;52.494;7.546;2022-09-30T02:59:42;100166.72;;;10.92;67.29
40788;BME280;26497;52.494;7.546;2022-09-30T03:02:10;100164.09;;;10.94;67.46
40788;BME280;26497;52.494;7.546;2022-09-30T03:04:39;100167.66;;;10.88;67.32
40788;BME280;26497;52.494;7.546;2022-09-30T03:07:07;100169.44;;;10.86;67.21
40788;BME280;26497;52.494;7.546;2022-09-30T03:09:35;100177.38;;;10.84;67.48
40788;BME280;26497;52.494;7.546;2022-09-30T03:12:21;100164.13;;;10.89;67.01
40788;BME280;26497;52.494;7.546;2022-09-30T03:15:28;100168.47;;;10.93;67.52
40788;BME280;26497;52.494;7.546;2022-09-30T03:21:07;100171.16;;;10.90;68.39
40788;BME280;26497;52.494;7.546;2022-09-30T03:26:42;100179.00;;;10.96;68.11
40788;BME280;26497;52.494;7.546;2022-09-30T03:29:21;100187.84;;;10.94;67.90
40788;BME280;26497;52.494;7.546;2022-09-30T03:32:03;100187.75;;;11.03;67.44
40788;BME280;26497;52.494;7.546;2022-09-30T03:34:44;100188.66;;;11.00;67.24
40788;BME280;26497;52.494;7.546;2022-09-30T03:37:20;100191.34;;;10.94;67.00
40788;BME280;26497;52.494;7.546;2022-09-30T03:39:58;100193.16;;;10.90;66.92
40788;BME280;26497;52.494;7.546;2022-09-30T03:42:33;100202.88;;;10.82;66.70
40788;BME280;26497;52.494;7.546;2022-09-30T03:45:05;100199.47;;;10.71;66.69
40788;BME280;26497;52.494;7.546;2022-09-30T03:47:40;100205.66;;;10.67;67.09
40788;BME280;26497;52.494;7.546;2022-09-30T03:50:12;100191.59;;;10.65;67.39
40788;BME280;26497;52.494;7.546;2022-09-30T03:52:42;100195.19;;;10.59;67.32
40788;BME280;26497;52.494;7.546;2022-09-30T03:55:10;100200.47;;;10.56;67.27
40788;BME280;26497;52.494;7.546;2022-09-30T03:57:38;100200.47;;;10.59;67.16
40788;BME280;26497;52.494;7.546;2022-09-30T04:00:06;100202.28;;;10.49;67.33
40788;BME280;26497;52.494;7.546;2022-09-30T04:02:34;100201.41;;;10.49;67.01
40788;BME280;26497;52.494;7.546;2022-09-30T04:05:01;100205.81;;;10.45;66.88
40788;BME280;26497;52.494;7.546;2022-09-30T04:07:28;100216.38;;;10.42;67.24
40788;BME280;26497;52.494;7.546;2022-09-30T04:09:57;100222.59;;;10.30;67.95
40788;BME280;26497;52.494;7.546;2022-09-30T04:12:24;100220.81;;;10.32;68.71
40788;BME280;26497;52.494;7.546;2022-09-30T04:14:52;100221.66;;;10.37;68.83
40788;BME280;26497;52.494;7.546;2022-09-30T04:17:19;100223.41;;;10.37;69.53
40788;BME280;26497;52.494;7.546;2022-09-30T04:19:46;100218.13;;;10.47;69.02
40788;BME280;26497;52.494;7.546;2022-09-30T04:22:13;100216.28;;;10.54;69.05
40788;BME280;26497;52.494;7.546;2022-09-30T04:24:40;100208.44;;;10.50;69.56
40788;BME280;26497;52.494;7.546;2022-09-30T04:27:09;100225.13;;;10.50;69.55
40788;BME280;26497;52.494;7.546;2022-09-30T04:29:36;100225.88;;;10.66;68.36
40788;BME280;26497;52.494;7.546;2022-09-30T04:32:04;100236.38;;;10.72;67.66
40788;BME280;26497;52.494;7.546;2022-09-30T04:34:31;100240.72;;;10.76;66.89
40788;BME280;26497;52.494;7.546;2022-09-30T04:36:58;100239.88;;;10.71;66.56
40788;BME280;26497;52.494;7.546;2022-09-30T04:39:25;100236.56;;;10.51;67.62
40788;BME280;26497;52.494;7.546;2022-09-30T04:41:52;100237.47;;;10.39;68.38
40788;BME280;26497;52.494;7.546;2022-09-30T04:44:21;100245.38;;;10.43;68.88
40788;BME280;26497;52.494;7.546;2022-09-30T04:46:48;100247.97;;;10.48;69.66
40788;BME280;26497;52.494;7.546;2022-09-30T04:49:16;100253.22;;;10.51;68.72
40788;BME280;26497;52.494;7.546;2022-09-30T04:51:42;100245.31;;;10.54;68.68
40788;BME280;26497;52.494;7.546;2022-09-30T04:54:11;100251.44;;;10.58;67.98
40788;BME280;26497;52.494;7.546;2022-09-30T04:56:38;100249.72;;;10.52;67.56
40788;BME280;26497;52.494;7.546;2022-09-30T04:59:06;100245.38;;;10.43;67.66
40788;BME280;26497;52.494;7.546;2022-09-30T05:01:34;100252.41;;;10.40;67.09
40788;BME280;26497;52.494;7.546;2022-09-30T05:04:01;100237.47;;;10.36;67.03
40788;BME280;26497;52.494;7.546;2022-09-30T05:06:29;100245.44;;;10.31;66.82
40788;BME280;26497;52.494;7.546;2022-09-30T05:08:57;100244.63;;;10.16;66.99
40788;BME280;26497;52.494;7.546;2022-09-30T05:11:24;100246.38;;;10.16;67.05
40788;BME280;26497;52.494;7.546;2022-09-30T05:13:51;100249.81;;;10.30;66.50
40788;BME280;26497;52.494;7.546;2022-09-30T05:16:18;100257.78;;;10.23;66.68
40788;BME280;26497;52.494;7.546;2022-09-30T05:18:48;100260.44;;;10.12;66.78
40788;BME280;26497;52.494;7.546;2022-09-30T05:21:18;100264.00;;;10.04;67.07
40788;BME280;26497;52.494;7.546;2022-09-30T05:23:45;100263.13;;;10.02;66.50
40788;BME280;26497;52.494;7.546;2022-09-30T05:26:13;100260.50;;;9.96;66.65
40788;BME280;26497;52.494;7.546;2022-09-30T05:28:41;100270.19;;;9.99;66.97
40788;BME280;26497;52.494;7.546;2022-09-30T05:31:08;100271.91;;;10.03;66.23
40788;BME280;26497;52.494;7.546;2022-09-30T05:33:37;100285.97;;;10.02;66.54
40788;BME280;26497;52.494;7.546;2022-09-30T05:36:07;100278.94;;;10.07;66.18
40788;BME280;26497;52.494;7.546;2022-09-30T05:38:35;100285.09;;;10.01;66.17
40788;BME280;26497;52.494;7.546;2022-09-30T05:41:06;100286.81;;;10.06;66.03
40788;BME280;26497;52.494;7.546;2022-09-30T05:43:37;100291.22;;;10.03;65.98
40788;BME280;26497;52.494;7.546;2022-09-30T05:46:05;100290.38;;;9.95;66.52
40788;BME280;26497;52.494;7.546;2022-09-30T05:48:33;100285.16;;;9.89;66.60
40788;BME280;26497;52.494;7.546;2022-09-30T05:51:00;100293.94;;;9.86;66.71
40788;BME280;26497;52.494;7.546;2022-09-30T05:53:29;100290.44;;;9.86;66.98
40788;BME280;26497;52.494;7.546;2022-09-30T05:55:57;100304.47;;;9.83;67.31
40788;BME280;26497;52.494;7.546;2022-09-30T05:58:25;100307.09;;;9.86;67.36
40788;BME280;26497;52.494;7.546;2022-09-30T06:00:52;100297.47;;;9.87;68.71
40788;BME280;26497;52.494;7.546;2022-09-30T06:03:19;100303.53;;;10.00;68.77
40788;BME280;26497;52.494;7.546;2022-09-30T06:05:46;100308.78;;;10.12;68.58
40788;BME280;26497;52.494;7.546;2022-09-30T06:08:14;100304.31;;;10.22;69.65
40788;BME280;26497;52.494;7.546;2022-09-30T06:10:43;100306.00;;;10.50;71.12
40788;BME280;26497;52.494;7.546;2022-09-30T06:13:11;100309.19;;;10.95;72.79
40788;BME280;26497;52.494;7.546;2022-09-30T06:15:38;100305.25;;;11.41;73.75
40788;BME280;26497;52.494;7.546;2022-09-30T06:18:07;100307.91;;;12.24;74.96
40788;BME280;26497;52.494;7.546;2022-09-30T06:20:35;100303.88;;;13.19;75.25
40788;BME280;26497;52.494;7.546;2022-09-30T06:23:02;100304.28;;;13.94;74.62
40788;BME280;26497;52.494;7.546;2022-09-30T06:25:30;100303.13;;;14.49;73.00
40788;BME280;26497;52.494;7.546;2022-09-30T06:27:59;100303.47;;;15.10;69.83
40788;BME280;26497;52.494;7.546;2022-09-30T06:30:27;100301.56;;;15.50;68.60
40788;BME280;26497;52.494;7.546;2022-09-30T06:32:56;100303.31;;;15.51;66.80
40788;BME280;26497;52.494;7.546;2022-09-30T06:35:23;100303.75;;;16.02;66.29
40788;BME280;26497;52.494;7.546;2022-09-30T06:37:51;100308.63;;;16.47;63.92
40788;BME280;26497;52.494;7.546;2022-09-30T06:40:18;100318.97;;;16.85;62.52
40788;BME280;26497;52.494;7.546;2022-09-30T06:42:46;100314.13;;;17.00;60.59
40788;BME280;26497;52.494;7.546;2022-09-30T06:45:16;100323.28;;;17.45;57.76
40788;BME280;26497;52.494;7.546;2022-09-30T06:47:44;100321.97;;;17.82;57.45
40788;BME280;26497;52.494;7.546;2022-09-30T06:50:15;100324.00;;;18.48;55.71
40788;BME280;26497;52.494;7.546;2022-09-30T06:52:42;100325.88;;;18.68;53.70
40788;BME280;26497;52.494;7.546;2022-09-30T06:55:10;100322.78;;;18.79;51.73
40788;BME280;26497;52.494;7.546;2022-09-30T07:01:19;100325.22;;;19.71;49.74
40788;BME280;26497;52.494;7.546;2022-09-30T07:03:46;100323.72;;;19.43;43.78
40788;BME280;26497;52.494;7.546;2022-09-30T07:06:14;100315.84;;;19.61;46.58
40788;BME280;26497;52.494;7.546;2022-09-30T07:08:41;100318.91;;;19.52;43.95
40788;BME280;26497;52.494;7.546;2022-09-30T07:11:11;100319.47;;;20.01;44.79
40788;BME280;26497;52.494;7.546;2022-09-30T07:13:39;100317.34;;;19.89;42.16
40788;BME280;26497;52.494;7.546;2022-09-30T07:16:08;100334.00;;;19.32;42.82
40788;BME280;26497;52.494;7.546;2022-09-30T07:18:38;100335.84;;;18.63;45.07
40788;BME280;26497;52.494;7.546;2022-09-30T07:21:07;100334.34;;;17.32;47.11
40788;BME280;26497;52.494;7.546;2022-09-30T07:23:34;100333.50;;;16.46;49.51
40788;BME280;26497;52.494;7.546;2022-09-30T07:26:03;100340.13;;;15.67;52.76
40788;BME280;26497;52.494;7.546;2022-09-30T07:28:35;100340.09;;;14.97;55.45
40788;BME280;26497;52.494;7.546;2022-09-30T07:31:08;100336.91;;;14.81;56.17
40788;BME280;26497;52.494;7.546;2022-09-30T07:33:38;100341.50;;;14.74;57.38
40788;BME280;26497;52.494;7.546;2022-09-30T07:36:06;100331.31;;;14.54;58.69
40788;BME280;26497;52.494;7.546;2022-09-30T07:38:37;100327.25;;;14.38;59.28
40788;BME280;26497;52.494;7.546;2022-09-30T07:41:09;100337.41;;;14.15;60.41
40788;BME280;26497;52.494;7.546;2022-09-30T07:43:38;100338.00;;;14.30;60.30
40788;BME280;26497;52.494;7.546;2022-09-30T07:46:08;100336.00;;;14.41;60.56
40788;BME280;26497;52.494;7.546;2022-09-30T07:48:39;100336.19;;;14.32;60.72
40788;BME280;26497;52.494;7.546;2022-09-30T07:51:15;100340.00;;;14.19;61.02
40788;BME280;26497;52.494;7.546;2022-09-30T07:53:47;100337.53;;;14.09;61.79
40788;BME280;26497;52.494;7.546;2022-09-30T07:56:15;100330.09;;;14.27;61.45
40788;BME280;26497;52.494;7.546;2022-09-30T07:58:43;100335.53;;;14.22;62.00
40788;BME280;26497;52.494;7.546;2022-09-30T08:01:11;100340.25;;;14.06;62.57
40788;BME280;26497;52.494;7.546;2022-09-30T08:03:42;100332.50;;;14.41;61.79
40788;BME280;26497;52.494;7.546;2022-09-30T08:06:13;100344.66;;;14.51;61.33
40788;BME280;26497;52.494;7.546;2022-09-30T08:08:41;100344.03;;;14.81;60.80
40788;BME280;26497;52.494;7.546;2022-09-30T08:11:11;100346.25;;;14.98;60.93
40788;BME280;26497;52.494;7.546;2022-09-30T08:13:39;100345.44;;;15.67;60.79
40788;BME280;26497;52.494;7.546;2022-09-30T08:16:07;100343.44;;;16.40;59.06
40788;BME280;26497;52.494;7.546;2022-09-30T08:18:35;100339.53;;;17.88;56.00
40788;BME280;26497;52.494;7.546;2022-09-30T08:21:04;100345.13;;;19.43;50.80
40788;BME280;26497;52.494;7.546;2022-09-30T08:23:32;100331.03;;;20.42;46.68
40788;BME280;26497;52.494;7.546;2022-09-30T08:26:04;100325.56;;;21.18;43.80
40788;BME280;26497;52.494;7.546;2022-09-30T08:28:31;100338.28;;;22.19;40.92
40788;BME280;26497;52.494;7.546;2022-09-30T08:31:05;100333.75;;;22.37;39.16
40788;BME280;26497;52.494;7.546;2022-09-30T08:33:33;100339.09;;;22.71;38.37
40788;BME280;26497;52.494;7.546;2022-09-30T08:36:04;100342.13;;;22.96;37.25
40788;BME280;26497;52.494;7.546;2022-09-30T08:38:33;100334.03;;;22.80;38.85
40788;BME280;26497;52.494;7.546;2022-09-30T08:41:20;100342.78;;;23.00;37.38
40788;BME280;26497;52.494;7.546;2022-09-30T08:44:05;100334.13;;;22.63;37.28
40788;BME280;26497;52.494;7.546;2022-09-30T08:46:41;100341.34;;;23.41;36.91
40788;BME280;26497;52.494;7.546;2022-09-30T08:49:28;100336.00;;;24.00;36.02
40788;BME280;26497;52.494;7.546;2022-09-30T08:52:00;100335.16;;;24.29;34.93
40788;BME280;26497;52.494;7.546;2022-09-30T08:54:31;100342.72;;;24.08;35.35
40788;BME280;26497;52.494;7.546;2022-09-30T08:57:02;100345.44;;;24.37;35.32
40788;BME280;26497;52.494;7.546;2022-09-30T08:59:36;100345.63;;;24.90;34.58
40788;BME280;26497;52.494;7.546;2022-09-30T09:39:30;100344.53;;;25.07;33.60
40788;BME280;26497;52.494;7.546;2022-09-30T09:42:13;100348.34;;;25.45;32.91
40788;BME280;26497;52.494;7.546;2022-09-30T09:44:54;100357.66;;;25.26;33.47
40788;BME280;26497;52.494;7.546;2022-09-30T09:47:25;100358.91;;;24.93;33.37
40788;BME280;26497;52.494;7.546;2022-09-30T09:49:56;100352.34;;;25.25;33.31
40788;BME280;26497;52.494;7.546;2022-09-30T09:53:20;100348.81;;;25.37;32.91
40788;BME280;26497;52.494;7.546;2022-09-30T09:55:59;100347.94;;;25.51;32.89
40788;BME280;26497;52.494;7.546;2022-09-30T09:59:09;100354.59;;;25.45;32.81
40788;BME280;26497;52.494;7.546;2022-09-30T10:01:41;100353.25;;;25.79;33.40
40788;BME280;26497;52.494;7.546;2022-09-30T10:04:19;100352.94;;;26.48;31.55
40788;BME280;26497;52.494;7.546;2022-09-30T10:06:52;100358.25;;;26.37;31.05
40788;BME280;26497;52.494;7.546;2022-09-30T10:09:32;100354.13;;;25.92;31.67
40788;BME280;26497;52.494;7.546;2022-09-30T10:12:27;100336.75;;;26.22;31.91
40788;BME280;26497;52.494;7.546;2022-09-30T10:15:20;100348.28;;;26.11;31.76
40788;BME280;26497;52.494;7.546;2022-09-30T10:17:53;100334.22;;;26.06;32.65
40788;BME280;26497;52.494;7.546;2022-09-30T10:20:30;100343.00;;;25.84;31.73
40788;BME280;26497;52.494;7.546;2022-09-30T10:23:08;100339.97;;;26.01;31.66
40788;BME280;26497;52.494;7.546;2022-09-30T10:25:36;100334.84;;;26.48;31.41
40788;BME280;26497;52.494;7.546;2022-09-30T10:28:24;100337.72;;;27.08;31.35
40788;BME280;26497;52.494;7.546;2022-09-30T10:30:56;100342.19;;;26.97;31.02
40788;BME280;26497;52.494;7.546;2022-09-30T10:38:55;100345.84;;;26.58;30.95
40788;BME280;26497;52.494;7.546;2022-09-30T10:41:26;100344.81;;;26.85;30.37
40788;BME280;26497;52.494;7.546;2022-09-30T10:43:57;100337.34;;;26.52;30.73
40788;BME280;26497;52.494;7.546;2022-09-30T10:46:28;100338.75;;;26.44;30.85
40788;BME280;26497;52.494;7.546;2022-09-30T10:48:57;100343.31;;;26.44;30.94
40788;BME280;26497;52.494;7.546;2022-09-30T10:51:29;100342.56;;;26.42;30.77
40788;BME280;26497;52.494;7.546;2022-09-30T10:53:59;100344.81;;;26.35;31.05
40788;BME280;26497;52.494;7.546;2022-09-30T10:56:39;100342.69;;;26.64;31.25
40788;BME280;26497;52.494;7.546;2022-09-30T10:59:26;100343.63;;;27.14;29.79
40788;BME280;26497;52.494;7.546;2022-09-30T11:02:02;100332.81;;;27.96;29.24
40788;BME280;26497;52.494;7.546;2022-09-30T11:04:35;100331.31;;;27.10;29.35
40788;BME280;26497;52.494;7.546;2022-09-30T11:07:14;100339.88;;;26.66;30.70
40788;BME280;26497;52.494;7.546;2022-09-30T11:09:51;100341.78;;;26.90;30.05
40788;BME280;26497;52.494;7.546;2022-09-30T11:12:27;100342.41;;;26.93;30.08
40788;BME280;26497;52.494;7.546;2022-09-30T11:15:06;100351.19;;;26.08;31.56
40788;BME280;26497;52.494;7.546;2022-09-30T11:17:41;100341.13;;;25.31;31.86
40788;BME280;26497;52.494;7.546;2022-09-30T11:20:20;100340.56;;;25.13;31.22
40788;BME280;26497;52.494;7.546;2022-09-30T11:22:55;100341.53;;;24.70;31.84
40788;BME280;26497;52.494;7.546;2022-09-30T11:25:32;100341.53;;;25.12;31.86
40788;BME280;26497;52.494;7.546;2022-09-30T11:28:39;100334.72;;;25.46;31.84
40788;BME280;26497;52.494;7.546;2022-09-30T11:31:25;100337.00;;;25.53;31.44
40788;BME280;26497;52.494;7.546;2022-09-30T11:34:14;100346.41;;;25.60;32.07
40788;BME280;26497;52.494;7.546;2022-09-30T11:36:52;100342.94;;;24.90;32.50
40788;BME280;26497;52.494;7.546;2022-09-30T11:39:42;100334.13;;;24.59;32.42
40788;BME280;26497;52.494;7.546;2022-09-30T11:42:18;100335.84;;;23.73;34.16
40788;BME280;26497;52.494;7.546;2022-09-30T11:44:55;100322.66;;;24.13;34.00
40788;BME280;26497;52.494;7.546;2022-09-30T11:47:48;100319.06;;;24.27;33.95
40788;BME280;26497;52.494;7.546;2022-09-30T11:50:37;100324.72;;;25.61;33.51
40788;BME280;26497;52.494;7.546;2022-09-30T11:53:20;100310.56;;;25.97;31.27
40788;BME280;26497;52.494;7.546;2022-09-30T11:56:14;100310.91;;;25.66;31.57
40788;BME280;26497;52.494;7.546;2022-09-30T11:58:48;100311.75;;;25.13;31.78
40788;BME280;26497;52.494;7.546;2022-09-30T12:01:23;100310.78;;;24.45;32.43
40788;BME280;26497;52.494;7.546;2022-09-30T12:04:00;100304.94;;;24.66;32.95
40788;BME280;26497;52.494;7.546;2022-09-30T12:06:34;100297.59;;;25.10;32.15
40788;BME280;26497;52.494;7.546;2022-09-30T12:09:15;100298.19;;;24.87;32.28
40788;BME280;26497;52.494;7.546;2022-09-30T12:11:51;100294.47;;;24.61;33.05
40788;BME280;26497;52.494;7.546;2022-09-30T12:14:27;100286.84;;;24.82;33.05
40788;BME280;26497;52.494;7.546;2022-09-30T12:16:59;100297.06;;;24.77;33.24
40788;BME280;26497;52.494;7.546;2022-09-30T12:19:35;100294.88;;;24.97;33.00
40788;BME280;26497;52.494;7.546;2022-09-30T12:22:10;100293.78;;;24.99;32.29
40788;BME280;26497;52.494;7.546;2022-09-30T12:24:42;100302.81;;;24.43;33.20
40788;BME280;26497;52.494;7.546;2022-09-30T12:27:16;100307.69;;;24.93;32.56
40788;BME280;26497;52.494;7.546;2022-09-30T12:29:56;100291.91;;;25.14;32.71
40788;BME280;26497;52.494;7.546;2022-09-30T12:36:27;100280.03;;;26.46;29.27
40788;BME280;26497;52.494;7.546;2022-09-30T12:43:01;100278.91;;;26.62;28.37
40788;BME280;26497;52.494;7.546;2022-09-30T12:48:39;100265.81;;;26.31;28.32
40788;BME280;26497;52.494;7.546;2022-09-30T12:51:08;100272.91;;;26.70;28.54
40788;BME280;26497;52.494;7.546;2022-09-30T12:53:38;100271.63;;;26.38;27.97
40788;BME280;26497;52.494;7.546;2022-09-30T12:56:08;100270.09;;;26.71;27.07
40788;BME280;26497;52.494;7.546;2022-09-30T12:58:40;100264.50;;;26.61;27.43
40788;BME280;26497;52.494;7.546;2022-09-30T13:01:13;100265.31;;;26.50;28.16
40788;BME280;26497;52.494;7.546;2022-09-30T13:03:49;100262.59;;;26.50;27.46
40788;BME280;26497;52.494;7.546;2022-09-30T13:06:19;100261.09;;;26.46;27.68
40788;BME280;26497;52.494;7.546;2022-09-30T13:09:16;100258.22;;;26.98;27.76
40788;BME280;26497;52.494;7.546;2022-09-30T13:11:44;100252.72;;;27.11;26.63
40788;BME280;26497;52.494;7.546;2022-09-30T13:14:32;100251.28;;;27.30;26.68
40788;BME280;26497;52.494;7.546;2022-09-30T13:17:27;100252.13;;;27.66;26.09
40788;BME280;26497;52.494;7.546;2022-09-30T13:19:54;100246.00;;;27.75;25.90
40788;BME280;26497;52.494;7.546;2022-09-30T13:22:58;100252.38;;;28.08;25.48
40788;BME280;26497;52.494;7.546;2022-09-30T13:25:26;100249.34;;;27.43;26.43
40788;BME280;26497;52.494;7.546;2022-09-30T13:28:29;100242.63;;;26.64;27.19
40788;BME280;26497;52.494;7.546;2022-09-30T13:31:14;100240.00;;;26.14;27.79
40788;BME280;26497;52.494;7.546;2022-09-30T13:33:46;100239.09;;;26.40;27.99
40788;BME280;26497;52.494;7.546;2022-09-30T13:36:30;100246.28;;;26.76;27.22
40788;BME280;26497;52.494;7.546;2022-09-30T13:39:19;100242.53;;;27.15;26.72
40788;BME280;26497;52.494;7.546;2022-09-30T13:42:00;100248.94;;;27.25;25.76
40788;BME280;26497;52.494;7.546;2022-09-30T13:44:39;100245.72;;;27.20;26.45
40788;BME280;26497;52.494;7.546;2022-09-30T13:47:16;100236.59;;;27.91;26.00
40788;BME280;26497;52.494;7.546;2022-09-30T13:49:51;100240.44;;;28.34;24.92
40788;BME280;26497;52.494;7.546;2022-09-30T13:52:23;100235.75;;;28.36;25.73
40788;BME280;26497;52.494;7.546;2022-09-30T13:54:53;100233.69;;;28.61;24.24
40788;BME280;26497;52.494;7.546;2022-09-30T13:57:26;100231.47;;;27.76;25.58
40788;BME280;26497;52.494;7.546;2022-09-30T14:00:06;100226.13;;;28.09;25.70
40788;BME280;26497;52.494;7.546;2022-09-30T14:06:07;100220.63;;;27.06;26.52
40788;BME280;26497;52.494;7.546;2022-09-30T14:09:09;100220.38;;;27.79;26.39
40788;BME280;26497;52.494;7.546;2022-09-30T14:11:59;100216.63;;;28.81;24.81
40788;BME280;26497;52.494;7.546;2022-09-30T14:15:04;100227.28;;;27.25;26.06
40788;BME280;26497;52.494;7.546;2022-09-30T14:17:48;100223.44;;;27.75;26.04
40788;BME280;26497;52.494;7.546;2022-09-30T14:20:38;100215.69;;;27.59;26.56
40788;BME280;26497;52.494;7.546;2022-09-30T14:23:13;100217.47;;;26.64;27.56
40788;BME280;26497;52.494;7.546;2022-09-30T14:25:47;100225.50;;;26.28;27.66
40788;BME280;26497;52.494;7.546;2022-09-30T14:28:22;100210.66;;;26.34;28.21
40788;BME280;26497;52.494;7.546;2022-09-30T14:31:01;100222.56;;;25.81;28.61
40788;BME280;26497;52.494;7.546;2022-09-30T14:33:39;100227.63;;;25.73;29.12
40788;BME280;26497;52.494;7.546;2022-09-30T14:36:16;100223.09;;;25.47;29.52
40788;BME280;26497;52.494;7.546;2022-09-30T14:38:46;100219.50;;;24.81;30.43